TGZ745 UGTB-UNNT
Flight info
| Callsign | TGZ745 |
|---|---|
| Flight time | N/A |
| Altitude | 39000 |
| Route | KUFAN MKL AKT P574 OGANU N55 DAKIN B808 LUNIM |
| Aircraft | B737/M-SDRWY/S |
Departure
| Time | N/A |
|---|---|
| Airport | Tbilisi International Airport (UGTB) |
Arrival
| Time | 2026-05-01 10:09 |
|---|---|
| Airport | Novosibirsk Tolmachevo Airport (UNNT) |
| Time | Latitude | Longitude | Altitude | Speed | Heading |
|---|---|---|---|---|---|
| 2026-05-01 07:23 | 44.56464 | 52.41437 | 39186 ft | 485 kts | 56° |
| 2026-05-01 07:24 | 44.61984 | 52.53314 | 39187 ft | 484 kts | 56° |
| 2026-05-01 07:24 | 44.65658 | 52.61246 | 39188 ft | 485 kts | 56° |
| 2026-05-01 07:25 | 44.69334 | 52.69206 | 39196 ft | 486 kts | 56° |
| 2026-05-01 07:25 | 44.73013 | 52.77193 | 39196 ft | 487 kts | 56° |
| 2026-05-01 07:26 | 44.76703 | 52.85227 | 39198 ft | 489 kts | 56° |
| 2026-05-01 07:26 | 44.80394 | 52.93287 | 39192 ft | 490 kts | 56° |
| 2026-05-01 07:27 | 44.84087 | 53.01372 | 39193 ft | 492 kts | 56° |
| 2026-05-01 07:27 | 44.87785 | 53.09493 | 39196 ft | 492 kts | 56° |
| 2026-05-01 07:28 | 44.91460 | 53.17585 | 39199 ft | 493 kts | 56° |
| 2026-05-01 07:28 | 44.95158 | 53.25751 | 39200 ft | 493 kts | 56° |
| 2026-05-01 07:29 | 44.98847 | 53.33921 | 39195 ft | 493 kts | 56° |
| 2026-05-01 07:29 | 45.02526 | 53.42092 | 39195 ft | 492 kts | 56° |
| 2026-05-01 07:30 | 45.06197 | 53.50269 | 39192 ft | 492 kts | 56° |
| 2026-05-01 07:30 | 45.09861 | 53.58454 | 39197 ft | 491 kts | 57° |
| 2026-05-01 07:31 | 45.13512 | 53.66633 | 39199 ft | 491 kts | 57° |
| 2026-05-01 07:32 | 45.22590 | 53.87073 | 39198 ft | 491 kts | 57° |
| 2026-05-01 07:33 | 45.28030 | 53.99393 | 39190 ft | 491 kts | 57° |
| 2026-05-01 07:33 | 45.33465 | 54.11754 | 39195 ft | 491 kts | 57° |
| 2026-05-01 07:34 | 45.38867 | 54.24095 | 39197 ft | 492 kts | 57° |
| 2026-05-01 07:35 | 45.42475 | 54.32366 | 39198 ft | 492 kts | 57° |
| 2026-05-01 07:35 | 45.46089 | 54.40678 | 39196 ft | 493 kts | 57° |
| 2026-05-01 07:36 | 45.49695 | 54.48996 | 39192 ft | 493 kts | 57° |
| 2026-05-01 07:36 | 45.53299 | 54.57331 | 39196 ft | 494 kts | 57° |
| 2026-05-01 07:37 | 45.58700 | 54.69872 | 39190 ft | 494 kts | 57° |
| 2026-05-01 07:37 | 45.62274 | 54.78201 | 39195 ft | 495 kts | 57° |
| 2026-05-01 07:38 | 45.65889 | 54.86652 | 39191 ft | 495 kts | 57° |
| 2026-05-01 07:39 | 45.71248 | 54.99225 | 39188 ft | 495 kts | 57° |
| 2026-05-01 07:39 | 45.76014 | 55.10453 | 39187 ft | 495 kts | 58° |
| 2026-05-01 07:40 | 45.79586 | 55.18900 | 39184 ft | 495 kts | 58° |
| 2026-05-01 07:40 | 45.83149 | 55.27350 | 39178 ft | 495 kts | 58° |
| 2026-05-01 07:41 | 45.86706 | 55.35813 | 39180 ft | 496 kts | 58° |
| 2026-05-01 07:42 | 45.92100 | 55.48691 | 39190 ft | 507 kts | 58° |
| 2026-05-01 07:42 | 45.95747 | 55.57434 | 39188 ft | 513 kts | 58° |
| 2026-05-01 07:43 | 45.99417 | 55.66261 | 39181 ft | 519 kts | 58° |
| 2026-05-01 07:43 | 46.04981 | 55.79695 | 39176 ft | 523 kts | 58° |
| 2026-05-01 07:44 | 46.12426 | 55.97775 | 39166 ft | 524 kts | 58° |
| 2026-05-01 07:45 | 46.16130 | 56.06815 | 39165 ft | 523 kts | 58° |
| 2026-05-01 07:45 | 46.19824 | 56.15858 | 39172 ft | 523 kts | 58° |
| 2026-05-01 07:46 | 46.23506 | 56.24902 | 39164 ft | 522 kts | 59° |
| 2026-05-01 07:47 | 46.28990 | 56.38429 | 39165 ft | 521 kts | 59° |
| 2026-05-01 07:47 | 46.32645 | 56.47482 | 39164 ft | 520 kts | 59° |
| 2026-05-01 07:48 | 46.38109 | 56.61069 | 39164 ft | 520 kts | 59° |
| 2026-05-01 07:48 | 46.41742 | 56.70142 | 39157 ft | 520 kts | 59° |
| 2026-05-01 07:49 | 46.47155 | 56.83695 | 39163 ft | 519 kts | 58° |
| 2026-05-01 07:50 | 46.51572 | 56.91926 | 39167 ft | 516 kts | 45° |
| 2026-05-01 07:50 | 46.59071 | 57.03197 | 39153 ft | 517 kts | 44° |
| 2026-05-01 07:51 | 46.64060 | 57.10746 | 39151 ft | 518 kts | 44° |
| 2026-05-01 07:52 | 46.71492 | 57.22202 | 39151 ft | 519 kts | 45° |
| 2026-05-01 07:52 | 46.76431 | 57.29874 | 39146 ft | 519 kts | 45° |
| 2026-05-01 07:53 | 46.83813 | 57.41372 | 39141 ft | 520 kts | 45° |
| 2026-05-01 07:53 | 46.88755 | 57.49092 | 39143 ft | 520 kts | 45° |
| 2026-05-01 07:55 | 47.01104 | 57.68479 | 39131 ft | 520 kts | 45° |
| 2026-05-01 07:56 | 47.13418 | 57.87954 | 39126 ft | 521 kts | 45° |
| 2026-05-01 07:57 | 47.20798 | 57.99694 | 39113 ft | 521 kts | 46° |
| 2026-05-01 07:58 | 47.30585 | 58.15344 | 39108 ft | 521 kts | 46° |
| 2026-05-01 07:59 | 47.40394 | 58.31121 | 39105 ft | 521 kts | 46° |
| 2026-05-01 08:00 | 47.55020 | 58.54820 | 39088 ft | 521 kts | 46° |
| 2026-05-01 08:01 | 47.64769 | 58.70736 | 39084 ft | 521 kts | 47° |
| 2026-05-01 08:02 | 47.72066 | 58.82711 | 39076 ft | 521 kts | 47° |
| 2026-05-01 08:03 | 47.79359 | 58.94734 | 39074 ft | 521 kts | 47° |
| 2026-05-01 08:03 | 47.86637 | 59.06788 | 39068 ft | 522 kts | 47° |
| 2026-05-01 08:04 | 47.96301 | 59.22875 | 39062 ft | 523 kts | 47° |
| 2026-05-01 08:05 | 48.03562 | 59.35029 | 39058 ft | 523 kts | 48° |
| 2026-05-01 08:06 | 48.10821 | 59.47234 | 39048 ft | 523 kts | 48° |
| 2026-05-01 08:07 | 48.20489 | 59.63576 | 39045 ft | 524 kts | 48° |
| 2026-05-01 08:08 | 48.27702 | 59.75836 | 39038 ft | 525 kts | 48° |
| 2026-05-01 08:09 | 48.37362 | 59.92344 | 39030 ft | 526 kts | 49° |
| 2026-05-01 08:09 | 48.42185 | 60.00625 | 39030 ft | 526 kts | 49° |
| 2026-05-01 08:10 | 48.51836 | 60.17272 | 39020 ft | 528 kts | 49° |
| 2026-05-01 08:11 | 48.61489 | 60.34029 | 39010 ft | 529 kts | 49° |
| 2026-05-01 08:12 | 48.68687 | 60.46595 | 39006 ft | 529 kts | 49° |
| 2026-05-01 08:13 | 48.75913 | 60.59269 | 38995 ft | 530 kts | 49° |
| 2026-05-01 08:13 | 48.83136 | 60.71997 | 38995 ft | 530 kts | 49° |
| 2026-05-01 08:14 | 48.87947 | 60.80512 | 38991 ft | 531 kts | 49° |
| 2026-05-01 08:14 | 48.92751 | 60.89040 | 38987 ft | 531 kts | 49° |
| 2026-05-01 08:15 | 48.99946 | 61.01865 | 38980 ft | 531 kts | 49° |
| 2026-05-01 08:16 | 49.04711 | 61.10392 | 38973 ft | 531 kts | 50° |
| 2026-05-01 08:16 | 49.09493 | 61.18978 | 38968 ft | 531 kts | 50° |
| 2026-05-01 08:17 | 49.14270 | 61.27582 | 38965 ft | 531 kts | 50° |
| 2026-05-01 08:17 | 49.19039 | 61.36201 | 38958 ft | 531 kts | 50° |
| 2026-05-01 08:18 | 49.23802 | 61.44837 | 38956 ft | 530 kts | 50° |
| 2026-05-01 08:19 | 49.33303 | 61.62149 | 38949 ft | 530 kts | 50° |
| 2026-05-01 08:19 | 49.37999 | 61.70749 | 38941 ft | 529 kts | 50° |
| 2026-05-01 08:20 | 49.42718 | 61.79417 | 38937 ft | 529 kts | 50° |
| 2026-05-01 08:20 | 49.47427 | 61.88097 | 38937 ft | 528 kts | 50° |
| 2026-05-01 08:21 | 49.52125 | 61.96785 | 38930 ft | 527 kts | 50° |
| 2026-05-01 08:21 | 49.56801 | 62.05460 | 38926 ft | 526 kts | 50° |
| 2026-05-01 08:22 | 49.61469 | 62.14150 | 38924 ft | 525 kts | 50° |
| 2026-05-01 08:22 | 49.66119 | 62.22835 | 38923 ft | 524 kts | 50° |
| 2026-05-01 08:23 | 49.70753 | 62.31519 | 38917 ft | 523 kts | 51° |
| 2026-05-01 08:23 | 49.75335 | 62.40134 | 38911 ft | 522 kts | 51° |
| 2026-05-01 08:24 | 49.79941 | 62.48820 | 38904 ft | 521 kts | 51° |
| 2026-05-01 08:24 | 49.84524 | 62.57494 | 38904 ft | 520 kts | 51° |
| 2026-05-01 08:25 | 49.89099 | 62.66183 | 38902 ft | 519 kts | 51° |
| 2026-05-01 08:25 | 49.93660 | 62.74872 | 38898 ft | 519 kts | 51° |
| 2026-05-01 08:26 | 49.98213 | 62.83574 | 38889 ft | 519 kts | 52° |
| 2026-05-01 08:26 | 50.01997 | 62.90830 | 38889 ft | 519 kts | 52° |
| 2026-05-01 08:27 | 50.07270 | 63.00973 | 38885 ft | 518 kts | 52° |
| 2026-05-01 08:27 | 50.11800 | 63.09717 | 38878 ft | 518 kts | 52° |
| 2026-05-01 08:28 | 50.15556 | 63.16992 | 38872 ft | 518 kts | 52° |
| 2026-05-01 08:28 | 50.20073 | 63.25765 | 38871 ft | 518 kts | 52° |
| 2026-05-01 08:29 | 50.24581 | 63.34552 | 38862 ft | 518 kts | 52° |
| 2026-05-01 08:29 | 50.29089 | 63.43368 | 38859 ft | 518 kts | 52° |
| 2026-05-01 08:30 | 50.33595 | 63.52210 | 38857 ft | 519 kts | 53° |
| 2026-05-01 08:30 | 50.38086 | 63.61052 | 38851 ft | 519 kts | 53° |
| 2026-05-01 08:31 | 50.42556 | 63.69882 | 38843 ft | 519 kts | 53° |
| 2026-05-01 08:31 | 50.47053 | 63.78796 | 38843 ft | 519 kts | 53° |
| 2026-05-01 08:32 | 50.51525 | 63.87691 | 38830 ft | 519 kts | 53° |
| 2026-05-01 08:32 | 50.55994 | 63.96610 | 38826 ft | 519 kts | 53° |
| 2026-05-01 08:33 | 50.60456 | 64.05547 | 38817 ft | 519 kts | 53° |
| 2026-05-01 08:33 | 50.64883 | 64.14443 | 38813 ft | 519 kts | 53° |
| 2026-05-01 08:34 | 50.69331 | 64.23412 | 38805 ft | 519 kts | 54° |
| 2026-05-01 08:34 | 50.73772 | 64.32399 | 38803 ft | 519 kts | 54° |
| 2026-05-01 08:35 | 50.78206 | 64.41400 | 38802 ft | 519 kts | 54° |
| 2026-05-01 08:35 | 50.82632 | 64.50418 | 38796 ft | 519 kts | 54° |
| 2026-05-01 08:36 | 50.87054 | 64.59460 | 38793 ft | 519 kts | 54° |
| 2026-05-01 08:36 | 50.91464 | 64.68508 | 38791 ft | 519 kts | 54° |
| 2026-05-01 08:37 | 50.95869 | 64.77577 | 38787 ft | 519 kts | 54° |
| 2026-05-01 08:37 | 51.00237 | 64.86600 | 38781 ft | 518 kts | 54° |
| 2026-05-01 08:38 | 51.04625 | 64.95698 | 38785 ft | 518 kts | 54° |
| 2026-05-01 08:38 | 51.09008 | 65.04816 | 38780 ft | 518 kts | 54° |
| 2026-05-01 08:39 | 51.13372 | 65.13927 | 38784 ft | 517 kts | 54° |
| 2026-05-01 08:39 | 51.17727 | 65.23052 | 38786 ft | 517 kts | 55° |
| 2026-05-01 08:40 | 51.24247 | 65.36772 | 38791 ft | 517 kts | 55° |
| 2026-05-01 08:40 | 51.28563 | 65.45895 | 38782 ft | 517 kts | 55° |
| 2026-05-01 08:41 | 51.32887 | 65.55067 | 38780 ft | 517 kts | 55° |
| 2026-05-01 08:41 | 51.37208 | 65.64265 | 38776 ft | 516 kts | 55° |
| 2026-05-01 08:42 | 51.41518 | 65.73472 | 38777 ft | 516 kts | 56° |
| 2026-05-01 08:42 | 51.45813 | 65.82680 | 38781 ft | 516 kts | 56° |
| 2026-05-01 08:43 | 51.50108 | 65.91921 | 38784 ft | 516 kts | 56° |
| 2026-05-01 08:43 | 51.54361 | 66.01104 | 38781 ft | 516 kts | 56° |
| 2026-05-01 08:44 | 51.58637 | 66.10371 | 38776 ft | 516 kts | 56° |
| 2026-05-01 08:44 | 51.62906 | 66.19654 | 38789 ft | 516 kts | 56° |
| 2026-05-01 08:45 | 51.67175 | 66.28972 | 38778 ft | 516 kts | 56° |
| 2026-05-01 08:45 | 51.71432 | 66.38297 | 38774 ft | 516 kts | 56° |
| 2026-05-01 08:46 | 51.75687 | 66.47652 | 38772 ft | 517 kts | 56° |
| 2026-05-01 08:46 | 51.79932 | 66.57019 | 38766 ft | 517 kts | 56° |
| 2026-05-01 08:47 | 51.84173 | 66.66410 | 38761 ft | 517 kts | 56° |
| 2026-05-01 08:47 | 51.88373 | 66.75744 | 38771 ft | 516 kts | 56° |
| 2026-05-01 08:48 | 51.92595 | 66.85162 | 38768 ft | 516 kts | 56° |
| 2026-05-01 08:48 | 51.96812 | 66.94605 | 38766 ft | 516 kts | 56° |
| 2026-05-01 08:49 | 52.01015 | 67.04050 | 38767 ft | 516 kts | 57° |
| 2026-05-01 08:49 | 52.05209 | 67.13509 | 38761 ft | 516 kts | 57° |
| 2026-05-01 08:50 | 52.09370 | 67.22928 | 38761 ft | 516 kts | 57° |
| 2026-05-01 08:50 | 52.13547 | 67.32418 | 38763 ft | 516 kts | 57° |
| 2026-05-01 08:51 | 52.17715 | 67.41922 | 38762 ft | 515 kts | 57° |
| 2026-05-01 08:51 | 52.21874 | 67.51443 | 38762 ft | 515 kts | 57° |
| 2026-05-01 08:52 | 52.26025 | 67.60980 | 38761 ft | 515 kts | 57° |
| 2026-05-01 08:52 | 52.30171 | 67.70539 | 38760 ft | 515 kts | 57° |
| 2026-05-01 08:53 | 52.34296 | 67.80087 | 38762 ft | 514 kts | 57° |
| 2026-05-01 08:53 | 52.38416 | 67.89660 | 38762 ft | 514 kts | 57° |
| 2026-05-01 08:54 | 52.42529 | 67.99252 | 38759 ft | 514 kts | 57° |
| 2026-05-01 08:54 | 52.46626 | 68.08843 | 38761 ft | 513 kts | 57° |
| 2026-05-01 08:55 | 52.50683 | 68.18374 | 38769 ft | 513 kts | 57° |
| 2026-05-01 08:55 | 52.54762 | 68.27994 | 38760 ft | 512 kts | 58° |
| 2026-05-01 08:56 | 52.58823 | 68.37610 | 38767 ft | 512 kts | 58° |
| 2026-05-01 08:56 | 52.62875 | 68.47238 | 38762 ft | 511 kts | 58° |
| 2026-05-01 08:57 | 52.66888 | 68.56810 | 38761 ft | 511 kts | 58° |
| 2026-05-01 08:57 | 52.70943 | 68.66519 | 38755 ft | 510 kts | 58° |
| 2026-05-01 08:58 | 52.74963 | 68.76182 | 38760 ft | 510 kts | 58° |
| 2026-05-01 08:58 | 52.78973 | 68.85855 | 38762 ft | 510 kts | 58° |
| 2026-05-01 08:59 | 52.82946 | 68.95477 | 38766 ft | 510 kts | 58° |
| 2026-05-01 08:59 | 52.86940 | 69.05188 | 38753 ft | 510 kts | 58° |
| 2026-05-01 09:00 | 52.90929 | 69.14922 | 38759 ft | 510 kts | 58° |
| 2026-05-01 09:00 | 52.94904 | 69.24659 | 38759 ft | 510 kts | 58° |
| 2026-05-01 09:01 | 52.98875 | 69.34426 | 38760 ft | 510 kts | 59° |
| 2026-05-01 09:01 | 53.02835 | 69.44201 | 38758 ft | 510 kts | 59° |
| 2026-05-01 09:02 | 53.06794 | 69.54014 | 38760 ft | 510 kts | 59° |
| 2026-05-01 09:02 | 53.10742 | 69.63835 | 38754 ft | 510 kts | 59° |
| 2026-05-01 09:03 | 53.14655 | 69.73608 | 38738 ft | 510 kts | 59° |
| 2026-05-01 09:03 | 53.18589 | 69.83470 | 38746 ft | 510 kts | 59° |
| 2026-05-01 09:04 | 53.22508 | 69.93336 | 38752 ft | 510 kts | 59° |
| 2026-05-01 09:04 | 53.26425 | 70.03233 | 38742 ft | 510 kts | 59° |
| 2026-05-01 09:05 | 53.30324 | 70.13124 | 38737 ft | 509 kts | 59° |
| 2026-05-01 09:05 | 53.34191 | 70.22973 | 38737 ft | 509 kts | 59° |
| 2026-05-01 09:06 | 53.38071 | 70.32895 | 38739 ft | 509 kts | 59° |
| 2026-05-01 09:06 | 53.41937 | 70.42818 | 38737 ft | 509 kts | 59° |
| 2026-05-01 09:07 | 53.45803 | 70.52780 | 38736 ft | 508 kts | 59° |
| 2026-05-01 09:07 | 53.49653 | 70.62741 | 38735 ft | 508 kts | 59° |
| 2026-05-01 09:08 | 53.53495 | 70.72722 | 38732 ft | 508 kts | 59° |
| 2026-05-01 09:08 | 53.57322 | 70.82703 | 38735 ft | 508 kts | 59° |
| 2026-05-01 09:09 | 53.61116 | 70.92637 | 38738 ft | 507 kts | 59° |
| 2026-05-01 09:09 | 53.64923 | 71.02644 | 38735 ft | 507 kts | 59° |
| 2026-05-01 09:10 | 53.68718 | 71.12662 | 38734 ft | 507 kts | 60° |
| 2026-05-01 09:10 | 53.72510 | 71.22710 | 38733 ft | 506 kts | 60° |
| 2026-05-01 09:11 | 53.76283 | 71.32750 | 38735 ft | 506 kts | 60° |
| 2026-05-01 09:11 | 53.80031 | 71.42763 | 38740 ft | 506 kts | 60° |
| 2026-05-01 09:12 | 53.83784 | 71.52829 | 38736 ft | 506 kts | 60° |
| 2026-05-01 09:12 | 53.87537 | 71.62935 | 38737 ft | 505 kts | 60° |
| 2026-05-01 09:13 | 53.90643 | 71.71331 | 38743 ft | 505 kts | 60° |
| 2026-05-01 09:13 | 53.94971 | 71.83078 | 38745 ft | 505 kts | 60° |
| 2026-05-01 09:14 | 53.98060 | 71.91495 | 38749 ft | 505 kts | 60° |
| 2026-05-01 09:14 | 54.01764 | 72.01628 | 38752 ft | 504 kts | 60° |
| 2026-05-01 09:15 | 54.05458 | 72.11775 | 38762 ft | 504 kts | 60° |
| 2026-05-01 09:15 | 54.09153 | 72.21964 | 38758 ft | 504 kts | 60° |
| 2026-05-01 09:16 | 54.12833 | 72.32152 | 38767 ft | 504 kts | 60° |
| 2026-05-01 09:17 | 54.17038 | 72.48356 | 38771 ft | 496 kts | 80° |
| 2026-05-01 09:17 | 54.19206 | 72.65621 | 38774 ft | 495 kts | 81° |
| 2026-05-01 09:18 | 54.21514 | 72.82770 | 38785 ft | 496 kts | 78° |
| 2026-05-01 09:19 | 54.24102 | 72.99922 | 38783 ft | 496 kts | 78° |
| 2026-05-01 09:20 | 54.26622 | 73.17099 | 38792 ft | 496 kts | 79° |
| 2026-05-01 09:21 | 54.29904 | 73.40058 | 38791 ft | 496 kts | 79° |
| 2026-05-01 09:21 | 54.32323 | 73.57197 | 38795 ft | 495 kts | 79° |
| 2026-05-01 09:22 | 54.35523 | 73.80160 | 38800 ft | 494 kts | 79° |
| 2026-05-01 09:23 | 54.37890 | 73.97372 | 38802 ft | 494 kts | 79° |
| 2026-05-01 09:24 | 54.40231 | 74.14597 | 38806 ft | 493 kts | 79° |
| 2026-05-01 09:25 | 54.43307 | 74.37533 | 38811 ft | 493 kts | 79° |
| 2026-05-01 09:26 | 54.45584 | 74.54748 | 38809 ft | 492 kts | 79° |
| 2026-05-01 09:26 | 54.47833 | 74.71951 | 38820 ft | 491 kts | 79° |
| 2026-05-01 09:27 | 54.50056 | 74.89168 | 38822 ft | 491 kts | 80° |
| 2026-05-01 09:28 | 54.51522 | 75.00638 | 38829 ft | 490 kts | 80° |
| 2026-05-01 09:28 | 54.52976 | 75.12102 | 38832 ft | 490 kts | 80° |
| 2026-05-01 09:29 | 54.55127 | 75.29240 | 38829 ft | 489 kts | 80° |
| 2026-05-01 09:30 | 54.57261 | 75.46459 | 38834 ft | 489 kts | 80° |
| 2026-05-01 09:30 | 54.59368 | 75.63666 | 38837 ft | 489 kts | 80° |
| 2026-05-01 09:31 | 54.60748 | 75.75062 | 38840 ft | 488 kts | 80° |
| 2026-05-01 09:32 | 54.62794 | 75.92132 | 38845 ft | 488 kts | 80° |
| 2026-05-01 09:32 | 54.64821 | 76.09260 | 38848 ft | 488 kts | 81° |
| 2026-05-01 09:33 | 54.66165 | 76.20743 | 38854 ft | 487 kts | 81° |
| 2026-05-01 09:34 | 54.68160 | 76.37975 | 38860 ft | 487 kts | 81° |
| 2026-05-01 09:34 | 54.70128 | 76.55204 | 38868 ft | 487 kts | 81° |
| 2026-05-01 09:35 | 54.72062 | 76.72358 | 38867 ft | 486 kts | 81° |
| 2026-05-01 09:36 | 54.73344 | 76.83861 | 38875 ft | 486 kts | 81° |
| 2026-05-01 09:36 | 54.74614 | 76.95361 | 38874 ft | 486 kts | 81° |
| 2026-05-01 09:37 | 54.75872 | 77.06860 | 38879 ft | 486 kts | 81° |
| 2026-05-01 09:37 | 54.77737 | 77.24108 | 38886 ft | 485 kts | 81° |
| 2026-05-01 09:38 | 54.79577 | 77.41363 | 38890 ft | 485 kts | 81° |
| 2026-05-01 09:39 | 54.81387 | 77.58573 | 38891 ft | 485 kts | 81° |
| 2026-05-01 09:39 | 54.82584 | 77.70096 | 38900 ft | 485 kts | 81° |
| 2026-05-01 09:40 | 54.84359 | 77.87397 | 38894 ft | 485 kts | 81° |
| 2026-05-01 09:41 | 54.85528 | 77.98934 | 38902 ft | 485 kts | 81° |
| 2026-05-01 09:41 | 54.87254 | 78.16180 | 38905 ft | 485 kts | 81° |
| 2026-05-01 09:42 | 54.88395 | 78.27722 | 38907 ft | 485 kts | 81° |
| 2026-05-01 09:43 | 54.90644 | 78.50828 | 38913 ft | 485 kts | 82° |
| 2026-05-01 09:43 | 54.91752 | 78.62384 | 38919 ft | 485 kts | 82° |
| 2026-05-01 09:44 | 54.93392 | 78.79728 | 38915 ft | 485 kts | 82° |
| 2026-05-01 09:45 | 54.94474 | 78.91314 | 38924 ft | 484 kts | 82° |
| 2026-05-01 09:45 | 54.96072 | 79.08671 | 38926 ft | 484 kts | 82° |
| 2026-05-01 09:46 | 54.97124 | 79.20258 | 38927 ft | 484 kts | 82° |
| 2026-05-01 09:46 | 54.98157 | 79.31755 | 38933 ft | 484 kts | 82° |
| 2026-05-01 09:47 | 54.99186 | 79.43340 | 38929 ft | 484 kts | 82° |
| 2026-05-01 09:47 | 55.00205 | 79.54938 | 38936 ft | 483 kts | 82° |
| 2026-05-01 09:48 | 55.01212 | 79.66529 | 38941 ft | 483 kts | 82° |
| 2026-05-01 09:48 | 55.02208 | 79.78124 | 38941 ft | 483 kts | 82° |
| 2026-05-01 09:49 | 55.03191 | 79.89710 | 38946 ft | 483 kts | 82° |
| 2026-05-01 09:49 | 55.04163 | 80.01296 | 38946 ft | 483 kts | 82° |
| 2026-05-01 09:50 | 55.05118 | 80.12818 | 38953 ft | 483 kts | 82° |
| 2026-05-01 09:50 | 55.06070 | 80.24438 | 38953 ft | 483 kts | 82° |
| 2026-05-01 09:51 | 55.07008 | 80.36036 | 38963 ft | 483 kts | 82° |
| 2026-05-01 09:51 | 55.07936 | 80.47641 | 38965 ft | 483 kts | 82° |
| 2026-05-01 09:52 | 55.08844 | 80.59135 | 38785 ft | 471 kts | 83° |
| 2026-05-01 09:52 | 55.09287 | 80.64805 | 38056 ft | 471 kts | 83° |
| 2026-05-01 09:52 | 55.09727 | 80.70460 | 37422 ft | 469 kts | 83° |
| 2026-05-01 09:53 | 55.10162 | 80.76094 | 36785 ft | 468 kts | 83° |
| 2026-05-01 09:53 | 55.10594 | 80.81721 | 36163 ft | 466 kts | 83° |
| 2026-05-01 09:53 | 55.11023 | 80.87321 | 35554 ft | 465 kts | 83° |
| 2026-05-01 09:53 | 55.11447 | 80.92914 | 34974 ft | 464 kts | 84° |
| 2026-05-01 09:54 | 55.11828 | 80.98495 | 34396 ft | 462 kts | 87° |
| 2026-05-01 09:54 | 55.11971 | 81.04087 | 33702 ft | 461 kts | 91° |
| 2026-05-01 09:54 | 55.11969 | 81.09675 | 32757 ft | 458 kts | 93° |
| 2026-05-01 09:54 | 55.11918 | 81.15212 | 31859 ft | 455 kts | 93° |
| 2026-05-01 09:55 | 55.11870 | 81.20719 | 30983 ft | 452 kts | 93° |
| 2026-05-01 09:55 | 55.11842 | 81.26187 | 30136 ft | 449 kts | 92° |
| 2026-05-01 09:55 | 55.11832 | 81.31621 | 29177 ft | 445 kts | 92° |
| 2026-05-01 09:55 | 55.11833 | 81.37002 | 28231 ft | 441 kts | 91° |
| 2026-05-01 09:56 | 55.11839 | 81.42347 | 27327 ft | 440 kts | 91° |
| 2026-05-01 09:56 | 55.11843 | 81.47708 | 26453 ft | 444 kts | 91° |
| 2026-05-01 09:56 | 55.11846 | 81.53119 | 25624 ft | 446 kts | 91° |
| 2026-05-01 09:56 | 55.11846 | 81.58527 | 24916 ft | 444 kts | 90° |
| 2026-05-01 09:57 | 55.11843 | 81.63911 | 24218 ft | 443 kts | 90° |
| 2026-05-01 09:57 | 55.11837 | 81.69287 | 23520 ft | 441 kts | 90° |
| 2026-05-01 09:57 | 55.11830 | 81.74625 | 22716 ft | 439 kts | 90° |
| 2026-05-01 09:57 | 55.11820 | 81.79944 | 21925 ft | 433 kts | 90° |
| 2026-05-01 09:58 | 55.11812 | 81.83384 | 21372 ft | 425 kts | 91° |
| 2026-05-01 09:58 | 55.11793 | 81.90210 | 20195 ft | 414 kts | 91° |
| 2026-05-01 09:58 | 55.11776 | 81.95208 | 19359 ft | 407 kts | 91° |
| 2026-05-01 09:58 | 55.11764 | 81.98465 | 18818 ft | 403 kts | 91° |
| 2026-05-01 09:59 | 55.11744 | 82.03321 | 17963 ft | 397 kts | 91° |
| 2026-05-01 09:59 | 55.11725 | 82.07571 | 17155 ft | 392 kts | 92° |
| 2026-05-01 09:59 | 55.11712 | 82.10415 | 16620 ft | 389 kts | 92° |
| 2026-05-01 09:59 | 55.11681 | 82.16618 | 15470 ft | 382 kts | 92° |
| 2026-05-01 10:00 | 55.11664 | 82.19679 | 14910 ft | 378 kts | 92° |
| 2026-05-01 10:00 | 55.11638 | 82.24308 | 14066 ft | 374 kts | 92° |
| 2026-05-01 10:00 | 55.11612 | 82.28759 | 13204 ft | 369 kts | 92° |
| 2026-05-01 10:00 | 55.11584 | 82.33213 | 12311 ft | 364 kts | 91° |
| 2026-05-01 10:01 | 55.11554 | 82.37616 | 11446 ft | 360 kts | 91° |
| 2026-05-01 10:01 | 55.11527 | 82.42005 | 10581 ft | 355 kts | 90° |
| 2026-05-01 10:01 | 55.11763 | 82.46264 | 9752 ft | 350 kts | 82° |
| 2026-05-01 10:01 | 55.12172 | 82.50386 | 8856 ft | 346 kts | 80° |
| 2026-05-01 10:02 | 55.12621 | 82.54474 | 7982 ft | 341 kts | 79° |
| 2026-05-01 10:02 | 55.13066 | 82.58518 | 7114 ft | 335 kts | 79° |
| 2026-05-01 10:02 | 55.13495 | 82.62469 | 6393 ft | 326 kts | 80° |
| 2026-05-01 10:02 | 55.13903 | 82.66306 | 5795 ft | 313 kts | 80° |
| 2026-05-01 10:03 | 55.14283 | 82.69924 | 5559 ft | 291 kts | 81° |
| 2026-05-01 10:03 | 55.14632 | 82.73290 | 5353 ft | 272 kts | 81° |
| 2026-05-01 10:03 | 55.14958 | 82.76443 | 5223 ft | 257 kts | 81° |
| 2026-05-01 10:03 | 55.15270 | 82.79467 | 5102 ft | 248 kts | 81° |
| 2026-05-01 10:04 | 55.15559 | 82.82391 | 5010 ft | 239 kts | 86° |
| 2026-05-01 10:04 | 55.15297 | 82.85131 | 5034 ft | 227 kts | 117° |
| 2026-05-01 10:04 | 55.14305 | 82.87291 | 4953 ft | 232 kts | 143° |
| 2026-05-01 10:04 | 55.12870 | 82.88401 | 4867 ft | 222 kts | 172° |
| 2026-05-01 10:05 | 55.11344 | 82.88462 | 4667 ft | 218 kts | 181° |
| 2026-05-01 10:05 | 55.09825 | 82.88328 | 4315 ft | 218 kts | 182° |
| 2026-05-01 10:05 | 55.08333 | 82.88190 | 3950 ft | 217 kts | 182° |
| 2026-05-01 10:05 | 55.06825 | 82.88061 | 3557 ft | 217 kts | 183° |
| 2026-05-01 10:06 | 55.05318 | 82.87936 | 3040 ft | 215 kts | 181° |
| 2026-05-01 10:06 | 55.03863 | 82.87519 | 2563 ft | 215 kts | 206° |
| 2026-05-01 10:06 | 55.02981 | 82.85615 | 2396 ft | 199 kts | 255° |
| 2026-05-01 10:06 | 55.02848 | 82.83327 | 2352 ft | 183 kts | 263° |
| 2026-05-01 10:07 | 55.02714 | 82.81222 | 2231 ft | 162 kts | 259° |
| 2026-05-01 10:07 | 55.02559 | 82.79362 | 2072 ft | 154 kts | 257° |
| 2026-05-01 10:07 | 55.02388 | 82.77479 | 1577 ft | 160 kts | 258° |
| 2026-05-01 10:07 | 55.02212 | 82.75577 | 1238 ft | 155 kts | 258° |
| 2026-05-01 10:08 | 55.01877 | 82.71955 | 777 ft | 153 kts | 258° |
| 2026-05-01 10:08 | 55.01707 | 82.70143 | 611 ft | 150 kts | 258° |
| 2026-05-01 10:08 | 55.01540 | 82.68379 | 431 ft | 144 kts | 259° |
| 2026-05-01 10:09 | 55.01393 | 82.66732 | 382 ft | 127 kts | 259° |
| 2026-05-01 10:09 | 55.01263 | 82.65364 | 372 ft | 103 kts | 260° |
| 2026-05-01 10:09 | 55.01187 | 82.64472 | 371 ft | 17 kts | 261° |
| 2026-05-01 10:09 | 55.01181 | 82.64409 | 372 ft | 8 kts | 261° |
| 2026-05-01 10:10 | 55.01172 | 82.64310 | 373 ft | 8 kts | 261° |
| 2026-05-01 10:10 | 55.01163 | 82.64214 | 374 ft | 8 kts | 261° |
| 2026-05-01 10:10 | 55.01109 | 82.63986 | 375 ft | 10 kts | 187° |
| 2026-05-01 10:11 | 55.01044 | 82.64004 | 374 ft | 9 kts | 169° |
| 2026-05-01 10:11 | 55.00992 | 82.64056 | 373 ft | 9 kts | 111° |
| 2026-05-01 10:11 | 55.00983 | 82.64164 | 373 ft | 9 kts | 98° |
| 2026-05-01 10:11 | 55.00972 | 82.64267 | 372 ft | 9 kts | 102° |
| 2026-05-01 10:12 | 55.00957 | 82.64367 | 372 ft | 8 kts | 105° |
| 2026-05-01 10:12 | 55.00941 | 82.64472 | 372 ft | 10 kts | 105° |
| 2026-05-01 10:12 | 55.00902 | 82.64738 | 372 ft | 13 kts | 103° |
| 2026-05-01 10:13 | 55.00879 | 82.64907 | 372 ft | 16 kts | 103° |
| 2026-05-01 10:13 | 55.00872 | 82.65064 | 372 ft | 12 kts | 81° |
| 2026-05-01 10:13 | 55.00885 | 82.65202 | 372 ft | 11 kts | 84° |
| 2026-05-01 10:14 | 55.00899 | 82.65470 | 372 ft | 11 kts | 81° |
| 2026-05-01 10:14 | 55.00912 | 82.65595 | 372 ft | 10 kts | 79° |
| 2026-05-01 10:14 | 55.00923 | 82.65719 | 372 ft | 10 kts | 82° |
| 2026-05-01 10:14 | 55.00933 | 82.65839 | 372 ft | 10 kts | 82° |
| 2026-05-01 10:15 | 55.00943 | 82.65956 | 372 ft | 10 kts | 82° |
| 2026-05-01 10:15 | 55.00952 | 82.66070 | 372 ft | 9 kts | 82° |
| 2026-05-01 10:15 | 55.00962 | 82.66181 | 372 ft | 9 kts | 78° |
| 2026-05-01 10:15 | 55.00982 | 82.66283 | 372 ft | 9 kts | 55° |
| 2026-05-01 10:16 | 55.01019 | 82.66367 | 372 ft | 9 kts | 52° |
| 2026-05-01 10:16 | 55.01040 | 82.66462 | 372 ft | 8 kts | 76° |
| 2026-05-01 10:16 | 55.01076 | 82.66649 | 372 ft | 8 kts | 71° |
| 2026-05-01 10:17 | 55.01094 | 82.66738 | 371 ft | 8 kts | 71° |
| 2026-05-01 10:17 | 55.01085 | 82.66903 | 371 ft | 5 kts | 130° |
| 2026-05-01 10:17 | 55.01080 | 82.66955 | 371 ft | 5 kts | 82° |
| 2026-05-01 10:18 | 55.01089 | 82.67073 | 371 ft | 6 kts | 82° |
| 2026-05-01 10:18 | 55.01095 | 82.67142 | 371 ft | 6 kts | 82° |
| 2026-05-01 10:18 | 55.01092 | 82.67207 | 371 ft | 6 kts | 129° |
| 2026-05-01 10:19 | 55.01054 | 82.67229 | 371 ft | 6 kts | 171° |
| 2026-05-01 10:19 | 55.01042 | 82.67233 | 371 ft | 0 kts | 171° |